»·PEaware :: N478GF KSBD-KEMT

N478GF :: KSBD-KEMT

FLIGHT INFORMATION

Flight Status: Arrived
Operator: Privately registered:
United States
More flights under this callsign
Pilot: Aaron H. (20539)
Aircraft: CESSNA 172 SKYHAWK
(C172)
More flights by this aircraft type
Origin: KSBD San Bernardino Intl
United States
Destination: KEMT El Monte
United States
More flights between these airports :: More routes between these airports
Route:
File this flight plan on PilotEdge
Remarks:
Altitude:
(Current/Filed)
4,500ft
Speed:
(Current/Filed)
110kts
Departed: 26-Sep-18 10:41 AM
Arrived: 26-Sep-18 11:07 AM
Distance/Time
Traveled:
42nm/0:26
Distance/Time
To Go:
Arrived

Flight Plot

Page will automatically refresh every two minutes.


Map Options




Map Legend


Flown Route
Filed Route
Departure Airport
Arrival Airport
Navaid (VOR, NDB)
Fix

Horizontal Profiles

Position Reports

Time Latitude Longitude Heading Altitude Ground
Speed
26-Sep-18 10:12 34.104142 -117.245940 355 1098ft 0kts
26-Sep-18 10:13 34.104142 -117.245940 355 1098ft 0kts
26-Sep-18 10:14 34.104142 -117.245940 355 1098ft 0kts
26-Sep-18 10:15 34.104142 -117.245940 355 1098ft 0kts
26-Sep-18 10:16 34.104142 -117.245940 355 1098ft 0kts
26-Sep-18 10:17 34.104142 -117.245940 355 1098ft 0kts
26-Sep-18 10:18 34.104142 -117.245940 355 1098ft 0kts
26-Sep-18 10:19 34.104142 -117.245940 355 1098ft 0kts
26-Sep-18 10:20 34.104142 -117.245940 355 1098ft 0kts
26-Sep-18 10:21 34.104142 -117.245940 355 1098ft 0kts
26-Sep-18 10:22 34.104142 -117.245940 355 1098ft 0kts
26-Sep-18 10:23 34.104142 -117.245940 355 1098ft 0kts
26-Sep-18 10:24 34.104142 -117.245940 355 1098ft 0kts
26-Sep-18 10:25 34.104142 -117.245940 355 1098ft 0kts
26-Sep-18 10:26 34.104142 -117.245940 355 1098ft 0kts
26-Sep-18 10:27 34.104142 -117.245940 355 1098ft 0kts
26-Sep-18 10:28 34.104142 -117.245940 355 1098ft 0kts
26-Sep-18 10:29 34.104283 -117.245587 127 1098ft 4kts
26-Sep-18 10:30 34.104229 -117.245477 109 1099ft 0kts
26-Sep-18 10:31 34.104229 -117.245477 109 1099ft 0kts
26-Sep-18 10:32 34.102848 -117.244752 156 1099ft 11kts
26-Sep-18 10:33 34.101833 -117.242444 134 1102ft 5kts
26-Sep-18 10:34 34.099717 -117.242019 183 1102ft 13kts
26-Sep-18 10:35 34.095682 -117.241982 183 1099ft 0kts
26-Sep-18 10:36 34.094996 -117.242210 233 1099ft 12kts
26-Sep-18 10:37 34.092834 -117.249432 250 1084ft 23kts
26-Sep-18 10:38 34.091623 -117.250785 159 1082ft 0kts
26-Sep-18 10:39 34.091623 -117.250785 159 1082ft 0kts
26-Sep-18 10:40 34.091623 -117.250785 159 1082ft 0kts
26-Sep-18 10:41 34.091617 -117.250782 158 1082ft 1kts
26-Sep-18 10:42 34.091173 -117.248826 67 1085ft 21kts
26-Sep-18 10:43 34.096898 -117.227653 70 1669ft 83kts
26-Sep-18 10:44 34.102479 -117.204019 81 2726ft 72kts
26-Sep-18 10:45 34.104839 -117.179841 108 3616ft 78kts
26-Sep-18 10:46 34.090401 -117.192744 244 4456ft 83kts
26-Sep-18 10:47 34.080783 -117.229115 257 4446ft 129kts
26-Sep-18 10:48 34.076802 -117.272379 272 4435ft 130kts
26-Sep-18 10:49 34.079124 -117.313986 276 4533ft 123kts
26-Sep-18 10:50 34.081609 -117.355247 271 4568ft 123kts
26-Sep-18 10:51 34.082699 -117.397557 274 4497ft 126kts
26-Sep-18 10:52 34.084426 -117.439484 272 4441ft 124kts
26-Sep-18 10:53 34.085718 -117.480861 274 4407ft 123kts
26-Sep-18 10:54 34.089232 -117.521317 279 4430ft 119kts
26-Sep-18 10:55 34.094706 -117.560305 273 4524ft 117kts
26-Sep-18 10:56 34.098111 -117.601674 273 3890ft 128kts
26-Sep-18 10:57 34.101194 -117.643250 273 3553ft 124kts
26-Sep-18 10:58 34.103008 -117.683516 267 3552ft 124kts
26-Sep-18 10:59 34.100511 -117.724880 265 3554ft 125kts
26-Sep-18 11:00 34.097605 -117.766761 265 3556ft 126kts
26-Sep-18 11:01 34.095083 -117.810784 273 3188ft 143kts
26-Sep-18 11:02 34.101393 -117.855294 276 2173ft 126kts
26-Sep-18 11:03 34.103861 -117.893434 271 2000ft 108kts
26-Sep-18 11:04 34.100152 -117.930531 259 1730ft 109kts
26-Sep-18 11:05 34.098616 -117.965735 276 1544ft 101kts
26-Sep-18 11:06 34.103767 -117.997653 288 1200ft 88kts
26-Sep-18 11:07 34.106808 -118.023285 223 887ft 78kts
26-Sep-18 11:08 34.088657 -118.033349 205 303ft 65kts
26-Sep-18 11:09 34.083026 -118.035950 80 284ft 3kts
26-Sep-18 11:10 34.086006 -118.034212 23 287ft 15kts
26-Sep-18 11:11 34.089509 -118.032222 25 294ft 12kts
26-Sep-18 11:12 34.090697 -118.031588 334 296ft 0kts
26-Sep-18 11:13 34.090697 -118.031588 334 296ft 0kts
26-Sep-18 11:14 34.090697 -118.031588 334 296ft 0kts
26-Sep-18 11:15 34.090863 -118.031902 287 295ft 8kts
26-Sep-18 11:16 34.081564 -118.038018 207 686ft 69kts
26-Sep-18 11:17 34.070514 -118.029159 38 1660ft 93kts
26-Sep-18 11:18 34.097217 -118.023718 1 2599ft 99kts
26-Sep-18 11:19 34.124727 -118.024246 353 3456ft 102kts
26-Sep-18 11:20 34.152083 -118.023999 48 4270ft 99kts
26-Sep-18 11:21 34.133299 -118.017504 205 4545ft 116kts
26-Sep-18 11:22 34.104934 -118.036146 209 4560ft 130kts
26-Sep-18 11:23 34.074255 -118.058519 207 4438ft 124kts
26-Sep-18 11:24 34.043782 -118.078191 203 4436ft 125kts

Navigation Log

Ident Type
Flight plan parsing failed, navigation log unavailable